createdAt,value
2022-09-15T00:03:03.358Z,0
2022-09-15T00:13:50.777Z,0
2022-09-15T00:19:02.824Z,0
2022-09-15T00:24:21.949Z,0
2022-09-15T00:29:41.185Z,0
2022-09-15T00:34:59.812Z,0
2022-09-15T00:40:19.314Z,0
2022-09-15T00:45:39.338Z,0
2022-09-15T00:50:58.263Z,0
2022-09-15T00:56:17.862Z,0
2022-09-15T01:01:36.522Z,0
2022-09-15T01:12:25.369Z,0
2022-09-15T01:17:34.661Z,0
2022-09-15T01:22:53.657Z,0
2022-09-15T01:28:12.457Z,0
2022-09-15T01:33:31.868Z,0
2022-09-15T01:38:51.327Z,0
2022-09-15T01:44:10.121Z,0
2022-09-15T01:49:29.776Z,0
2022-09-15T01:54:49.434Z,0
2022-09-15T02:00:08.229Z,6.5499
2022-09-15T02:10:47.263Z,6.5499
2022-09-15T02:16:05.926Z,6.5499
2022-09-15T02:21:24.552Z,6.5499
2022-09-15T02:26:44.238Z,6.5499
2022-09-15T02:32:06.946Z,6.5499
2022-09-15T02:37:23.093Z,6.5499
2022-09-15T02:43:07.816Z,6.5499
2022-09-15T02:48:28.167Z,6.5499
2022-09-15T02:53:46.302Z,6.5499
2022-09-15T02:59:14.234Z,6.5499
2022-09-15T03:04:24.232Z,6.5499
2022-09-15T03:09:42.881Z,6.5499
2022-09-15T03:20:21.557Z,0
2022-09-15T03:25:40.577Z,6.5499
2022-09-15T03:31:00.215Z,6.5499
2022-09-15T03:36:19.719Z,6.5499
2022-09-15T03:41:38.907Z,6.5499
2022-09-15T03:46:57.885Z,6.5499
2022-09-15T03:52:17.453Z,6.5499
2022-09-15T04:02:55.111Z,6.5494
2022-09-15T04:08:14.371Z,6.5499
2022-09-15T04:13:41.805Z,6.5499
2022-09-15T04:18:53.688Z,6.5499
2022-09-15T04:24:12.637Z,6.5499
2022-09-15T04:29:32.073Z,0
2022-09-15T04:34:50.815Z,6.5499
2022-09-15T04:40:09.952Z,6.5499
2022-09-15T04:45:29.016Z,6.3448
2022-09-15T04:50:47.966Z,6.2777
2022-09-15T05:01:27.046Z,6.2143
2022-09-15T05:06:45.876Z,6.2218
2022-09-15T05:12:04.798Z,6.2852
2022-09-15T05:17:26.649Z,6.2926
2022-09-15T05:22:43.936Z,6.3001
2022-09-15T05:28:03.259Z,6.3448
2022-09-15T05:33:22.485Z,6.3411
2022-09-15T05:44:00.085Z,6.315
2022-09-15T05:49:18.973Z,6.356
2022-09-15T05:54:37.824Z,6.3821
2022-09-15T05:59:56.927Z,6.4231
2022-09-15T06:10:34.876Z,6.3336
2022-09-15T06:15:55.070Z,6.3635
2022-09-15T06:26:32.540Z,6.3784
2022-09-15T06:31:52.015Z,6.397
2022-09-15T06:37:10.951Z,6.4343
2022-09-15T06:42:30.052Z,6.4492
2022-09-15T06:47:58.217Z,6.5014
2022-09-15T06:53:08.345Z,0
2022-09-15T06:58:27.442Z,6.3262
2022-09-15T07:09:06.012Z,6.3635
2022-09-15T07:14:25.481Z,6.3709
2022-09-15T07:19:44.814Z,6.3411
2022-09-15T07:25:03.697Z,6.3113
2022-09-15T07:30:23.063Z,6.4008
2022-09-15T07:35:41.954Z,6.4753
2022-09-15T07:41:00.913Z,6.4082
2022-09-15T07:51:39.360Z,6.3635
2022-09-15T07:56:58.981Z,6.4306
2022-09-15T08:07:37.246Z,6.4604
2022-09-15T08:12:56.281Z,6.4306
2022-09-15T08:18:15.172Z,6.4567
2022-09-15T08:23:34.133Z,6.4828
2022-09-15T08:28:53.334Z,6.4008
2022-09-15T08:34:12.486Z,6.453
2022-09-15T08:39:31.515Z,6.4269
2022-09-15T08:50:09.775Z,6.5014
2022-09-15T08:55:28.992Z,6.4567
2022-09-15T09:00:48.318Z,6.4418
2022-09-15T09:06:07.882Z,6.274
2022-09-15T09:11:26.741Z,6.2367
2022-09-15T09:16:45.945Z,6.177
2022-09-15T09:22:04.919Z,6.1845
2022-09-15T09:27:24.234Z,0
2022-09-15T09:32:43.915Z,6.3672
2022-09-15T09:43:23.078Z,6.3187
2022-09-15T09:48:41.406Z,6.2665
2022-09-15T09:54:00.392Z,6.2031
2022-09-15T09:59:19.730Z,6.2106
2022-09-15T10:04:39.180Z,6.2143
2022-09-15T10:09:58.968Z,6.1919
2022-09-15T10:15:18.508Z,6.1696
2022-09-15T10:25:59.360Z,0.3985
2022-09-15T10:31:15.128Z,0.3524
2022-09-15T10:36:33.908Z,0.3377
2022-09-15T10:41:53.448Z,0.2884
2022-09-15T10:47:12.969Z,0.2859
2022-09-15T10:52:31.735Z,0.2987
2022-09-15T10:57:50.373Z,0.3577
2022-09-15T11:03:10.769Z,0.2607
2022-09-15T11:08:30.081Z,0.2127
2022-09-15T11:13:49.239Z,0.2064
2022-09-15T11:19:08.849Z,0.1885
2022-09-15T11:24:28.180Z,0.2169
2022-09-15T11:29:46.658Z,0.2457
2022-09-15T11:35:06.835Z,0.2832
2022-09-15T11:41:41.026Z,0.2903
2022-09-15T11:51:03.892Z,0.3361
2022-09-15T11:56:23.184Z,0.3775
2022-09-15T12:07:01.687Z,0.2898
2022-09-15T12:12:21.041Z,0.3062
2022-09-15T12:22:58.852Z,0.399
2022-09-15T12:28:18.121Z,0.4315
2022-09-15T12:33:37.034Z,0.4834
2022-09-15T12:38:56.124Z,0.6682
2022-09-15T12:44:15.141Z,0.2827
2022-09-15T12:49:34.706Z,0.1898
2022-09-15T12:54:53.470Z,0.2072
2022-09-15T13:05:41.580Z,0.149
2022-09-15T13:10:52.582Z,0.187
2022-09-15T13:17:26.740Z,0.3556
2022-09-15T13:21:41.451Z,0.4242
2022-09-15T13:32:08.596Z,0.4262
2022-09-15T13:48:07.082Z,1.9099
2022-09-15T14:04:05.409Z,1.5175
2022-09-15T14:09:24.653Z,1.0342
2022-09-15T14:14:44.099Z,0.3188
2022-09-15T14:20:02.930Z,0.4653
2022-09-15T14:25:22.242Z,0.543
2022-09-15T14:33:55.312Z,0.2972
2022-09-15T14:38:11.780Z,0.2613
2022-09-15T14:42:27.181Z,0.3379
2022-09-15T14:57:58.840Z,0.2479
2022-09-15T15:02:34.003Z,0.1605
2022-09-15T15:07:52.960Z,0.2085
2022-09-15T15:13:12.079Z,0.2625
2022-09-15T15:18:31.741Z,0.2607
2022-09-15T15:30:25.653Z,0.3134
2022-09-15T15:45:08.720Z,0.1598
2022-09-15T15:53:41.766Z,0.1135
2022-09-15T15:55:46.098Z,0.0978
2022-09-15T16:06:24.783Z,0.1175
2022-09-15T16:11:43.196Z,0.1248
2022-09-15T16:17:02.706Z,0.1725
2022-09-15T16:22:21.469Z,0.1546
2022-09-15T16:28:45.267Z,0.1306
2022-09-15T16:33:00.359Z,0.0881
2022-09-15T16:38:19.768Z,0.0732
2022-09-15T16:44:53.903Z,0.094
2022-09-15T16:48:59.232Z,0.0759
2022-09-15T16:54:16.028Z,0.0565
2022-09-15T17:06:09.767Z,0.0465
2022-09-15T17:10:13.542Z,0.0428
2022-09-15T17:17:12.165Z,0.0394
2022-09-15T17:20:53.851Z,0.037
2022-09-15T17:36:50.395Z,0.0215
2022-09-15T17:47:28.252Z,0.0018
2022-09-15T17:52:45.923Z,0
2022-09-15T17:58:04.736Z,0
2022-09-15T18:03:22.956Z,0
2022-09-15T18:08:42.435Z,0
2022-09-15T18:14:01.973Z,0
2022-09-15T18:19:21.113Z,0
2022-09-15T18:24:40.339Z,0
2022-09-15T18:30:00.155Z,0
2022-09-15T18:35:18.784Z,0
2022-09-15T18:40:37.170Z,0
2022-09-15T18:45:56.631Z,0
2022-09-15T18:51:23.575Z,0
2022-09-15T18:56:34.636Z,0
2022-09-15T19:01:53.853Z,0
2022-09-15T19:12:31.657Z,0
2022-09-15T19:17:50.950Z,0
2022-09-15T19:23:10.121Z,0
2022-09-15T19:28:29.643Z,0
2022-09-15T19:33:49.263Z,0
2022-09-15T19:39:07.650Z,0
2022-09-15T19:44:27.540Z,0
2022-09-15T19:55:05.526Z,0
2022-09-15T20:00:24.966Z,0
2022-09-15T20:05:43.374Z,0
2022-09-15T20:11:03.603Z,0
2022-09-15T20:16:22.854Z,0
2022-09-15T20:22:57.054Z,6.5499
2022-09-15T20:27:12.427Z,0
2022-09-15T20:32:21.960Z,6.5499
2022-09-15T20:38:54.280Z,6.5499
2022-09-15T20:42:58.505Z,6.5499
2022-09-15T20:53:37.081Z,6.5499
2022-09-15T20:58:56.882Z,0
2022-09-15T21:05:30.999Z,6.5499
2022-09-15T21:14:55.445Z,6.5499
2022-09-15T21:19:12.129Z,6.5499
2022-09-15T21:28:17.644Z,6.5499
2022-09-15T21:31:31.168Z,0
2022-09-15T21:42:09.686Z,6.5499
2022-09-15T21:47:30.056Z,6.5499
2022-09-15T21:54:04.216Z,6.5499
2022-09-15T21:58:08.250Z,0
2022-09-15T22:08:45.350Z,6.5494
2022-09-15T22:14:05.182Z,6.5499
2022-09-15T22:20:39.306Z,0
2022-09-15T22:24:45.136Z,6.5499
2022-09-15T22:30:02.448Z,0
2022-09-15T22:46:00.011Z,6.5494
2022-09-15T22:51:27.600Z,6.5499
2022-09-15T22:56:39.215Z,6.5499
2022-09-15T23:01:59.649Z,6.5494
2022-09-15T23:07:18.364Z,6.5499
2022-09-15T23:12:37.911Z,0
2022-09-15T23:28:36.319Z,0
2022-09-15T23:33:53.368Z,0
2022-09-15T23:39:13.503Z,6.5499
2022-09-15T23:44:31.991Z,6.5499
2022-09-15T23:56:26.101Z,6.5499
